Home PIREPS Pireps

Flight BEL3702

  • Submitted By: Vincent Fourni
  • Departure Airport: barcelona airport (LEBL)
  • Arrival Airport: Bruxelles National (EBBR)
  • Aircraft: A320-214 (OO-SNG)
  • Flight Time: 01.59
  • Date Submitted: 20/03/2015
  • Status: Accepted
Flight Details
Gross Revenue:
(137 load / € 0.00 per unit
€ 0.00
Fuel Cost:
(0 fuel used @ 5.1 / unit)
€ 0.00

Additional Log Information:

View Log

Aircraft Used in flight is SN Brussels Airlines
20:24 Brakes are On
20:24 You Landed @ 25 Knots and with 0 Vertical Speed
Arrival Weather
EBBR 201850Z 35003KT 2600 BR BKN012 05/03 Q1023 NOSIGrn
20:27 Brakes are Released
20:30 Landing Gear Up @ 183 Knots and 260 Feet
22:02 Above FL100 you need to switch of the landing lights
22:02 Above FL100 you need to switch of the landing lights
22:10 Landing Gear Down @ 182 Knots and 3130 Feet
22:19 Brakes are On
22:24 Brussels Bel-Track1.0.0.8

Route Map

Corporate About Us Our Team Vacancies Information Fleet Route Network Rules and Regulations Operations Flight Schedules Event Center Tours Partners IVAO Vatsim Acars dev FSCB

fb Users Online Belgium Piet Desimpelaere,
1 Pilot(s) and 128 Guest(s) Online
CMS by phpVMS - Design by Crazycreatives.com - Copyright © 2020 - Brussels Airlines Virtual